sensor_id;sensor_type;location;lat;lon;timestamp;P1;durP1;ratioP1;P2;durP2;ratioP2
65757;SDS011;52495;52.208;5.158;2022-11-20T00:01:27;15.57;;;9.35;;
65757;SDS011;52495;52.208;5.158;2022-11-20T00:03:55;16.58;;;10.15;;
65757;SDS011;52495;52.208;5.158;2022-11-20T00:06:23;14.85;;;9.40;;
65757;SDS011;52495;52.208;5.158;2022-11-20T00:08:50;17.60;;;9.80;;
65757;SDS011;52495;52.208;5.158;2022-11-20T00:11:17;13.70;;;9.07;;
65757;SDS011;52495;52.208;5.158;2022-11-20T00:13:45;16.80;;;9.65;;
65757;SDS011;52495;52.208;5.158;2022-11-20T00:16:14;15.50;;;9.38;;
65757;SDS011;52495;52.208;5.158;2022-11-20T00:18:43;17.63;;;9.88;;
65757;SDS011;52495;52.208;5.158;2022-11-20T00:21:10;16.40;;;9.95;;
65757;SDS011;52495;52.208;5.158;2022-11-20T00:23:39;16.27;;;9.32;;
65757;SDS011;52495;52.208;5.158;2022-11-20T00:26:07;15.00;;;9.38;;
65757;SDS011;52495;52.208;5.158;2022-11-20T00:28:35;15.48;;;9.85;;
65757;SDS011;52495;52.208;5.158;2022-11-20T00:31:02;15.32;;;9.45;;
65757;SDS011;52495;52.208;5.158;2022-11-20T00:33:30;15.02;;;9.65;;
65757;SDS011;52495;52.208;5.158;2022-11-20T00:36:02;18.40;;;9.70;;
65757;SDS011;52495;52.208;5.158;2022-11-20T00:38:30;16.55;;;9.82;;
65757;SDS011;52495;52.208;5.158;2022-11-20T00:40:57;16.52;;;9.38;;
65757;SDS011;52495;52.208;5.158;2022-11-20T00:43:25;13.13;;;7.18;;
65757;SDS011;52495;52.208;5.158;2022-11-20T00:45:58;18.13;;;10.32;;
65757;SDS011;52495;52.208;5.158;2022-11-20T00:48:26;16.05;;;9.65;;
65757;SDS011;52495;52.208;5.158;2022-11-20T00:50:53;16.30;;;9.90;;
65757;SDS011;52495;52.208;5.158;2022-11-20T00:53:22;17.08;;;9.75;;
65757;SDS011;52495;52.208;5.158;2022-11-20T00:55:53;18.65;;;11.27;;
65757;SDS011;52495;52.208;5.158;2022-11-20T00:58:20;18.23;;;10.57;;
65757;SDS011;52495;52.208;5.158;2022-11-20T01:00:47;20.45;;;11.90;;
65757;SDS011;52495;52.208;5.158;2022-11-20T01:03:15;21.75;;;11.93;;
65757;SDS011;52495;52.208;5.158;2022-11-20T01:05:42;15.98;;;10.55;;
65757;SDS011;52495;52.208;5.158;2022-11-20T01:08:09;17.88;;;10.55;;
65757;SDS011;52495;52.208;5.158;2022-11-20T01:10:37;17.95;;;11.07;;
65757;SDS011;52495;52.208;5.158;2022-11-20T01:13:04;20.35;;;11.50;;
65757;SDS011;52495;52.208;5.158;2022-11-20T01:15:48;21.25;;;11.90;;
65757;SDS011;52495;52.208;5.158;2022-11-20T01:18:15;16.98;;;10.20;;
65757;SDS011;52495;52.208;5.158;2022-11-20T01:20:42;16.00;;;9.80;;
65757;SDS011;52495;52.208;5.158;2022-11-20T01:23:09;19.48;;;10.27;;
65757;SDS011;52495;52.208;5.158;2022-11-20T01:25:37;15.85;;;10.32;;
65757;SDS011;52495;52.208;5.158;2022-11-20T01:28:04;17.13;;;10.20;;
65757;SDS011;52495;52.208;5.158;2022-11-20T01:30:31;17.00;;;9.85;;
65757;SDS011;52495;52.208;5.158;2022-11-20T01:32:57;17.75;;;10.73;;
65757;SDS011;52495;52.208;5.158;2022-11-20T01:35:24;17.33;;;11.10;;
65757;SDS011;52495;52.208;5.158;2022-11-20T01:37:51;18.13;;;9.85;;
65757;SDS011;52495;52.208;5.158;2022-11-20T01:40:17;18.67;;;10.73;;
65757;SDS011;52495;52.208;5.158;2022-11-20T01:42:46;17.90;;;10.45;;
65757;SDS011;52495;52.208;5.158;2022-11-20T01:45:44;20.02;;;10.93;;
65757;SDS011;52495;52.208;5.158;2022-11-20T01:48:26;19.05;;;10.63;;
65757;SDS011;52495;52.208;5.158;2022-11-20T01:50:57;20.77;;;11.23;;
65757;SDS011;52495;52.208;5.158;2022-11-20T01:53:25;15.90;;;10.02;;
65757;SDS011;52495;52.208;5.158;2022-11-20T01:55:58;18.02;;;9.63;;
65757;SDS011;52495;52.208;5.158;2022-11-20T01:58:30;17.08;;;10.35;;
65757;SDS011;52495;52.208;5.158;2022-11-20T02:00:59;20.40;;;10.27;;
65757;SDS011;52495;52.208;5.158;2022-11-20T02:03:26;16.92;;;10.20;;
65757;SDS011;52495;52.208;5.158;2022-11-20T02:05:55;19.67;;;10.85;;
65757;SDS011;52495;52.208;5.158;2022-11-20T02:08:28;17.10;;;10.35;;
65757;SDS011;52495;52.208;5.158;2022-11-20T02:10:56;17.45;;;10.07;;
65757;SDS011;52495;52.208;5.158;2022-11-20T02:13:23;18.00;;;10.43;;
65757;SDS011;52495;52.208;5.158;2022-11-20T02:16:19;16.23;;;10.23;;
65757;SDS011;52495;52.208;5.158;2022-11-20T02:18:48;17.30;;;10.07;;
65757;SDS011;52495;52.208;5.158;2022-11-20T02:21:19;15.45;;;10.07;;
65757;SDS011;52495;52.208;5.158;2022-11-20T02:23:58;17.15;;;9.75;;
65757;SDS011;52495;52.208;5.158;2022-11-20T02:26:27;15.32;;;9.13;;
65757;SDS011;52495;52.208;5.158;2022-11-20T02:28:56;15.25;;;9.30;;
65757;SDS011;52495;52.208;5.158;2022-11-20T02:31:24;16.73;;;10.15;;
65757;SDS011;52495;52.208;5.158;2022-11-20T02:33:54;17.02;;;9.50;;
65757;SDS011;52495;52.208;5.158;2022-11-20T02:36:21;18.00;;;10.68;;
65757;SDS011;52495;52.208;5.158;2022-11-20T02:38:50;13.48;;;8.80;;
65757;SDS011;52495;52.208;5.158;2022-11-20T02:41:18;16.73;;;10.25;;
65757;SDS011;52495;52.208;5.158;2022-11-20T02:43:45;16.05;;;10.18;;
65757;SDS011;52495;52.208;5.158;2022-11-20T02:46:11;16.40;;;10.15;;
65757;SDS011;52495;52.208;5.158;2022-11-20T02:48:38;18.27;;;10.90;;
65757;SDS011;52495;52.208;5.158;2022-11-20T02:51:05;14.77;;;9.13;;
65757;SDS011;52495;52.208;5.158;2022-11-20T02:53:35;16.45;;;10.32;;
65757;SDS011;52495;52.208;5.158;2022-11-20T02:56:01;17.00;;;9.52;;
65757;SDS011;52495;52.208;5.158;2022-11-20T02:58:29;15.50;;;10.05;;
65757;SDS011;52495;52.208;5.158;2022-11-20T03:00:56;18.65;;;10.52;;
65757;SDS011;52495;52.208;5.158;2022-11-20T03:03:23;16.17;;;9.52;;
65757;SDS011;52495;52.208;5.158;2022-11-20T03:05:50;16.48;;;9.88;;
65757;SDS011;52495;52.208;5.158;2022-11-20T03:08:17;15.05;;;9.32;;
65757;SDS011;52495;52.208;5.158;2022-11-20T03:10:43;17.58;;;9.80;;
65757;SDS011;52495;52.208;5.158;2022-11-20T03:13:10;17.80;;;10.45;;
65757;SDS011;52495;52.208;5.158;2022-11-20T03:15:38;14.95;;;8.95;;
65757;SDS011;52495;52.208;5.158;2022-11-20T03:18:05;17.17;;;8.80;;
65757;SDS011;52495;52.208;5.158;2022-11-20T03:20:32;15.43;;;9.65;;
65757;SDS011;52495;52.208;5.158;2022-11-20T03:23:00;16.27;;;9.57;;
65757;SDS011;52495;52.208;5.158;2022-11-20T03:25:27;17.27;;;9.40;;
65757;SDS011;52495;52.208;5.158;2022-11-20T03:27:54;15.65;;;9.68;;
65757;SDS011;52495;52.208;5.158;2022-11-20T03:30:20;14.70;;;8.63;;
65757;SDS011;52495;52.208;5.158;2022-11-20T03:32:49;16.33;;;9.15;;
65757;SDS011;52495;52.208;5.158;2022-11-20T03:35:19;13.93;;;8.57;;
65757;SDS011;52495;52.208;5.158;2022-11-20T03:37:46;14.88;;;9.27;;
65757;SDS011;52495;52.208;5.158;2022-11-20T03:40:13;17.73;;;8.95;;
65757;SDS011;52495;52.208;5.158;2022-11-20T03:42:40;16.88;;;9.70;;
65757;SDS011;52495;52.208;5.158;2022-11-20T03:45:13;14.60;;;9.48;;
65757;SDS011;52495;52.208;5.158;2022-11-20T03:47:41;16.63;;;9.50;;
65757;SDS011;52495;52.208;5.158;2022-11-20T03:50:10;16.83;;;9.40;;
65757;SDS011;52495;52.208;5.158;2022-11-20T03:52:38;15.02;;;9.48;;
65757;SDS011;52495;52.208;5.158;2022-11-20T03:55:05;15.45;;;9.45;;
65757;SDS011;52495;52.208;5.158;2022-11-20T03:57:32;17.48;;;9.77;;
65757;SDS011;52495;52.208;5.158;2022-11-20T03:59:59;14.45;;;9.15;;
65757;SDS011;52495;52.208;5.158;2022-11-20T04:02:26;15.07;;;8.70;;
65757;SDS011;52495;52.208;5.158;2022-11-20T04:04:53;16.10;;;9.43;;
65757;SDS011;52495;52.208;5.158;2022-11-20T04:07:21;15.10;;;8.80;;
65757;SDS011;52495;52.208;5.158;2022-11-20T04:09:48;15.95;;;10.00;;
65757;SDS011;52495;52.208;5.158;2022-11-20T04:12:14;16.75;;;9.73;;
65757;SDS011;52495;52.208;5.158;2022-11-20T04:14:41;13.65;;;9.05;;
65757;SDS011;52495;52.208;5.158;2022-11-20T04:17:08;17.85;;;10.00;;
65757;SDS011;52495;52.208;5.158;2022-11-20T04:19:34;17.48;;;9.68;;
65757;SDS011;52495;52.208;5.158;2022-11-20T04:22:01;16.00;;;9.50;;
65757;SDS011;52495;52.208;5.158;2022-11-20T04:24:29;17.67;;;9.93;;
65757;SDS011;52495;52.208;5.158;2022-11-20T04:26:56;16.08;;;9.63;;
65757;SDS011;52495;52.208;5.158;2022-11-20T04:29:23;14.23;;;9.45;;
65757;SDS011;52495;52.208;5.158;2022-11-20T04:31:49;19.55;;;9.35;;
65757;SDS011;52495;52.208;5.158;2022-11-20T04:34:16;15.70;;;9.00;;
65757;SDS011;52495;52.208;5.158;2022-11-20T04:36:43;16.20;;;10.38;;
65757;SDS011;52495;52.208;5.158;2022-11-20T04:39:13;15.00;;;8.70;;
65757;SDS011;52495;52.208;5.158;2022-11-20T04:41:43;14.88;;;9.48;;
65757;SDS011;52495;52.208;5.158;2022-11-20T04:44:10;15.50;;;9.73;;
65757;SDS011;52495;52.208;5.158;2022-11-20T04:46:38;15.63;;;9.82;;
65757;SDS011;52495;52.208;5.158;2022-11-20T04:49:05;16.85;;;9.57;;
65757;SDS011;52495;52.208;5.158;2022-11-20T04:51:33;15.23;;;9.13;;
65757;SDS011;52495;52.208;5.158;2022-11-20T04:54:00;16.15;;;9.10;;
65757;SDS011;52495;52.208;5.158;2022-11-20T04:56:27;14.68;;;8.85;;
65757;SDS011;52495;52.208;5.158;2022-11-20T04:58:55;14.02;;;9.57;;
65757;SDS011;52495;52.208;5.158;2022-11-20T05:01:26;17.05;;;10.55;;
65757;SDS011;52495;52.208;5.158;2022-11-20T05:03:53;16.70;;;10.38;;
65757;SDS011;52495;52.208;5.158;2022-11-20T05:06:21;17.50;;;9.73;;
65757;SDS011;52495;52.208;5.158;2022-11-20T05:08:48;13.32;;;8.45;;
65757;SDS011;52495;52.208;5.158;2022-11-20T05:11:16;14.02;;;8.75;;
65757;SDS011;52495;52.208;5.158;2022-11-20T05:13:45;16.55;;;10.70;;
65757;SDS011;52495;52.208;5.158;2022-11-20T05:16:14;17.10;;;9.88;;
65757;SDS011;52495;52.208;5.158;2022-11-20T05:18:45;16.48;;;10.65;;
65757;SDS011;52495;52.208;5.158;2022-11-20T05:21:12;15.13;;;10.25;;
65757;SDS011;52495;52.208;5.158;2022-11-20T05:23:42;15.85;;;9.85;;
65757;SDS011;52495;52.208;5.158;2022-11-20T05:26:12;17.63;;;10.23;;
65757;SDS011;52495;52.208;5.158;2022-11-20T05:28:40;17.27;;;9.75;;
65757;SDS011;52495;52.208;5.158;2022-11-20T05:31:07;16.60;;;9.52;;
65757;SDS011;52495;52.208;5.158;2022-11-20T05:33:36;15.77;;;10.30;;
65757;SDS011;52495;52.208;5.158;2022-11-20T05:36:06;17.05;;;9.75;;
65757;SDS011;52495;52.208;5.158;2022-11-20T05:38:34;16.88;;;9.70;;
65757;SDS011;52495;52.208;5.158;2022-11-20T05:41:04;15.57;;;9.30;;
65757;SDS011;52495;52.208;5.158;2022-11-20T05:43:32;17.33;;;9.30;;
65757;SDS011;52495;52.208;5.158;2022-11-20T05:46:00;15.57;;;9.85;;
65757;SDS011;52495;52.208;5.158;2022-11-20T05:48:27;17.50;;;9.52;;
65757;SDS011;52495;52.208;5.158;2022-11-20T05:50:56;16.65;;;10.15;;
65757;SDS011;52495;52.208;5.158;2022-11-20T05:53:23;17.08;;;9.95;;
65757;SDS011;52495;52.208;5.158;2022-11-20T05:55:55;16.77;;;9.38;;
65757;SDS011;52495;52.208;5.158;2022-11-20T05:58:22;16.02;;;9.25;;
65757;SDS011;52495;52.208;5.158;2022-11-20T06:00:49;17.65;;;10.23;;
65757;SDS011;52495;52.208;5.158;2022-11-20T06:03:16;17.45;;;10.02;;
65757;SDS011;52495;52.208;5.158;2022-11-20T06:05:43;18.27;;;10.05;;
65757;SDS011;52495;52.208;5.158;2022-11-20T06:08:11;17.40;;;10.07;;
65757;SDS011;52495;52.208;5.158;2022-11-20T06:10:38;19.08;;;10.27;;
65757;SDS011;52495;52.208;5.158;2022-11-20T06:13:05;16.67;;;10.70;;
65757;SDS011;52495;52.208;5.158;2022-11-20T06:15:33;15.50;;;9.45;;
65757;SDS011;52495;52.208;5.158;2022-11-20T06:18:00;17.40;;;9.77;;
65757;SDS011;52495;52.208;5.158;2022-11-20T06:20:26;16.45;;;10.25;;
65757;SDS011;52495;52.208;5.158;2022-11-20T06:22:53;17.73;;;10.38;;
65757;SDS011;52495;52.208;5.158;2022-11-20T06:25:21;17.40;;;9.85;;
65757;SDS011;52495;52.208;5.158;2022-11-20T06:27:48;15.57;;;9.95;;
65757;SDS011;52495;52.208;5.158;2022-11-20T06:30:15;16.52;;;9.13;;
65757;SDS011;52495;52.208;5.158;2022-11-20T06:32:42;18.88;;;10.70;;
65757;SDS011;52495;52.208;5.158;2022-11-20T06:35:10;15.73;;;9.82;;
65757;SDS011;52495;52.208;5.158;2022-11-20T06:37:36;16.95;;;10.57;;
65757;SDS011;52495;52.208;5.158;2022-11-20T06:40:03;19.20;;;9.98;;
65757;SDS011;52495;52.208;5.158;2022-11-20T06:42:33;18.33;;;10.70;;
65757;SDS011;52495;52.208;5.158;2022-11-20T06:45:00;16.70;;;10.27;;
65757;SDS011;52495;52.208;5.158;2022-11-20T06:47:26;15.43;;;8.93;;
65757;SDS011;52495;52.208;5.158;2022-11-20T06:49:53;15.13;;;9.38;;
65757;SDS011;52495;52.208;5.158;2022-11-20T06:52:20;15.68;;;10.30;;
65757;SDS011;52495;52.208;5.158;2022-11-20T06:54:46;19.35;;;10.70;;
65757;SDS011;52495;52.208;5.158;2022-11-20T06:57:13;15.15;;;9.73;;
65757;SDS011;52495;52.208;5.158;2022-11-20T06:59:42;14.43;;;9.55;;
65757;SDS011;52495;52.208;5.158;2022-11-20T07:02:09;14.35;;;9.43;;
65757;SDS011;52495;52.208;5.158;2022-11-20T07:04:37;18.15;;;9.65;;
65757;SDS011;52495;52.208;5.158;2022-11-20T07:07:03;18.35;;;9.20;;
65757;SDS011;52495;52.208;5.158;2022-11-20T07:09:31;16.48;;;9.73;;
65757;SDS011;52495;52.208;5.158;2022-11-20T07:12:01;19.20;;;10.85;;
65757;SDS011;52495;52.208;5.158;2022-11-20T07:14:28;16.10;;;9.43;;
65757;SDS011;52495;52.208;5.158;2022-11-20T07:16:56;15.40;;;8.75;;
65757;SDS011;52495;52.208;5.158;2022-11-20T07:19:23;17.40;;;10.35;;
65757;SDS011;52495;52.208;5.158;2022-11-20T07:21:49;17.05;;;10.27;;
65757;SDS011;52495;52.208;5.158;2022-11-20T07:24:16;19.13;;;10.48;;
65757;SDS011;52495;52.208;5.158;2022-11-20T07:26:45;17.98;;;10.40;;
65757;SDS011;52495;52.208;5.158;2022-11-20T07:29:13;19.17;;;11.27;;
65757;SDS011;52495;52.208;5.158;2022-11-20T07:31:40;21.05;;;11.18;;
65757;SDS011;52495;52.208;5.158;2022-11-20T07:34:08;16.35;;;10.25;;
65757;SDS011;52495;52.208;5.158;2022-11-20T07:36:35;22.42;;;12.40;;
65757;SDS011;52495;52.208;5.158;2022-11-20T07:39:02;14.23;;;9.70;;
65757;SDS011;52495;52.208;5.158;2022-11-20T07:41:29;17.73;;;11.70;;
65757;SDS011;52495;52.208;5.158;2022-11-20T07:43:56;19.48;;;10.80;;
65757;SDS011;52495;52.208;5.158;2022-11-20T07:46:23;20.23;;;11.45;;
65757;SDS011;52495;52.208;5.158;2022-11-20T07:48:50;23.55;;;13.43;;
65757;SDS011;52495;52.208;5.158;2022-11-20T07:51:18;19.90;;;11.82;;
65757;SDS011;52495;52.208;5.158;2022-11-20T07:53:45;19.10;;;11.93;;
65757;SDS011;52495;52.208;5.158;2022-11-20T07:56:12;21.42;;;12.25;;
65757;SDS011;52495;52.208;5.158;2022-11-20T07:58:42;20.17;;;12.55;;
65757;SDS011;52495;52.208;5.158;2022-11-20T08:01:09;19.27;;;11.88;;
65757;SDS011;52495;52.208;5.158;2022-11-20T08:03:36;20.00;;;11.15;;
65757;SDS011;52495;52.208;5.158;2022-11-20T08:06:03;21.17;;;12.73;;
65757;SDS011;52495;52.208;5.158;2022-11-20T08:08:32;21.98;;;12.30;;
65757;SDS011;52495;52.208;5.158;2022-11-20T08:10:59;21.13;;;13.13;;
65757;SDS011;52495;52.208;5.158;2022-11-20T08:13:40;24.40;;;12.65;;
65757;SDS011;52495;52.208;5.158;2022-11-20T08:16:24;21.75;;;12.93;;
65757;SDS011;52495;52.208;5.158;2022-11-20T08:18:51;20.88;;;11.63;;
65757;SDS011;52495;52.208;5.158;2022-11-20T08:21:18;22.88;;;13.45;;
65757;SDS011;52495;52.208;5.158;2022-11-20T08:23:47;21.63;;;12.35;;
65757;SDS011;52495;52.208;5.158;2022-11-20T08:26:16;17.42;;;9.55;;
65757;SDS011;52495;52.208;5.158;2022-11-20T08:28:43;22.20;;;12.10;;
65757;SDS011;52495;52.208;5.158;2022-11-20T08:31:10;20.30;;;12.10;;
65757;SDS011;52495;52.208;5.158;2022-11-20T08:33:37;20.42;;;13.15;;
65757;SDS011;52495;52.208;5.158;2022-11-20T08:36:04;20.58;;;11.57;;
65757;SDS011;52495;52.208;5.158;2022-11-20T08:38:32;21.40;;;12.63;;
65757;SDS011;52495;52.208;5.158;2022-11-20T08:41:04;22.08;;;13.82;;
65757;SDS011;52495;52.208;5.158;2022-11-20T08:43:51;21.38;;;12.70;;
65757;SDS011;52495;52.208;5.158;2022-11-20T08:46:20;22.25;;;12.63;;
65757;SDS011;52495;52.208;5.158;2022-11-20T08:48:47;18.15;;;11.68;;
65757;SDS011;52495;52.208;5.158;2022-11-20T08:51:14;20.60;;;12.40;;
65757;SDS011;52495;52.208;5.158;2022-11-20T08:53:41;21.45;;;12.52;;
65757;SDS011;52495;52.208;5.158;2022-11-20T08:56:10;20.08;;;13.15;;
65757;SDS011;52495;52.208;5.158;2022-11-20T08:58:37;20.27;;;12.70;;
65757;SDS011;52495;52.208;5.158;2022-11-20T09:01:04;22.60;;;13.50;;
65757;SDS011;52495;52.208;5.158;2022-11-20T09:03:31;22.45;;;12.50;;
65757;SDS011;52495;52.208;5.158;2022-11-20T09:05:58;22.73;;;12.88;;
65757;SDS011;52495;52.208;5.158;2022-11-20T09:08:26;25.75;;;16.42;;
65757;SDS011;52495;52.208;5.158;2022-11-20T09:10:55;22.63;;;13.63;;
65757;SDS011;52495;52.208;5.158;2022-11-20T09:13:24;21.63;;;13.32;;
65757;SDS011;52495;52.208;5.158;2022-11-20T09:15:53;22.65;;;13.85;;
65757;SDS011;52495;52.208;5.158;2022-11-20T09:18:20;21.58;;;14.60;;
65757;SDS011;52495;52.208;5.158;2022-11-20T09:20:46;24.35;;;15.20;;
65757;SDS011;52495;52.208;5.158;2022-11-20T09:23:13;21.48;;;13.05;;
65757;SDS011;52495;52.208;5.158;2022-11-20T09:25:40;20.77;;;13.27;;
65757;SDS011;52495;52.208;5.158;2022-11-20T09:28:07;22.15;;;13.55;;
65757;SDS011;52495;52.208;5.158;2022-11-20T09:30:35;21.73;;;12.80;;
65757;SDS011;52495;52.208;5.158;2022-11-20T09:33:03;22.88;;;13.95;;
65757;SDS011;52495;52.208;5.158;2022-11-20T09:35:31;21.33;;;12.98;;
65757;SDS011;52495;52.208;5.158;2022-11-20T09:37:57;21.45;;;14.95;;
65757;SDS011;52495;52.208;5.158;2022-11-20T09:40:25;20.25;;;13.73;;
65757;SDS011;52495;52.208;5.158;2022-11-20T09:42:55;35.33;;;18.77;;
65757;SDS011;52495;52.208;5.158;2022-11-20T09:45:30;27.92;;;16.05;;
65757;SDS011;52495;52.208;5.158;2022-11-20T09:48:21;24.17;;;14.88;;
65757;SDS011;52495;52.208;5.158;2022-11-20T09:50:57;26.83;;;17.98;;
65757;SDS011;52495;52.208;5.158;2022-11-20T09:53:33;26.33;;;17.30;;
65757;SDS011;52495;52.208;5.158;2022-11-20T09:56:12;26.77;;;16.10;;
65757;SDS011;52495;52.208;5.158;2022-11-20T09:58:40;23.42;;;14.65;;
65757;SDS011;52495;52.208;5.158;2022-11-20T10:01:12;28.90;;;15.73;;
65757;SDS011;52495;52.208;5.158;2022-11-20T10:03:45;34.50;;;21.48;;
65757;SDS011;52495;52.208;5.158;2022-11-20T10:06:18;34.10;;;18.73;;
65757;SDS011;52495;52.208;5.158;2022-11-20T10:08:51;33.35;;;20.10;;
65757;SDS011;52495;52.208;5.158;2022-11-20T10:11:27;39.78;;;21.95;;
65757;SDS011;52495;52.208;5.158;2022-11-20T10:14:04;34.58;;;18.48;;
65757;SDS011;52495;52.208;5.158;2022-11-20T10:16:44;50.90;;;26.88;;
65757;SDS011;52495;52.208;5.158;2022-11-20T10:19:26;30.85;;;17.73;;
65757;SDS011;52495;52.208;5.158;2022-11-20T10:22:02;30.95;;;20.63;;
65757;SDS011;52495;52.208;5.158;2022-11-20T10:24:43;34.25;;;20.45;;
65757;SDS011;52495;52.208;5.158;2022-11-20T10:27:22;30.27;;;21.05;;
65757;SDS011;52495;52.208;5.158;2022-11-20T10:30:01;32.03;;;19.17;;
65757;SDS011;52495;52.208;5.158;2022-11-20T10:32:36;26.40;;;18.08;;
65757;SDS011;52495;52.208;5.158;2022-11-20T10:35:05;27.90;;;15.35;;
65757;SDS011;52495;52.208;5.158;2022-11-20T10:37:42;25.17;;;16.00;;
65757;SDS011;52495;52.208;5.158;2022-11-20T10:40:17;26.98;;;16.13;;
65757;SDS011;52495;52.208;5.158;2022-11-20T10:42:49;31.05;;;16.15;;
65757;SDS011;52495;52.208;5.158;2022-11-20T10:45:21;25.60;;;15.25;;
65757;SDS011;52495;52.208;5.158;2022-11-20T10:48:07;26.58;;;16.50;;
65757;SDS011;52495;52.208;5.158;2022-11-20T10:50:40;25.95;;;15.68;;
65757;SDS011;52495;52.208;5.158;2022-11-20T10:53:15;28.15;;;16.60;;
65757;SDS011;52495;52.208;5.158;2022-11-20T10:55:50;30.83;;;18.00;;
65757;SDS011;52495;52.208;5.158;2022-11-20T10:58:24;32.20;;;17.80;;
65757;SDS011;52495;52.208;5.158;2022-11-20T11:01:04;39.50;;;20.92;;
65757;SDS011;52495;52.208;5.158;2022-11-20T11:03:32;39.95;;;23.92;;
65757;SDS011;52495;52.208;5.158;2022-11-20T11:06:01;56.30;;;27.20;;
65757;SDS011;52495;52.208;5.158;2022-11-20T11:08:34;33.85;;;19.55;;
65757;SDS011;52495;52.208;5.158;2022-11-20T11:11:09;28.90;;;17.13;;
65757;SDS011;52495;52.208;5.158;2022-11-20T11:13:46;33.45;;;19.45;;
65757;SDS011;52495;52.208;5.158;2022-11-20T11:16:17;28.88;;;16.13;;
65757;SDS011;52495;52.208;5.158;2022-11-20T11:18:49;29.02;;;17.40;;
65757;SDS011;52495;52.208;5.158;2022-11-20T11:21:21;26.08;;;16.05;;
65757;SDS011;52495;52.208;5.158;2022-11-20T11:23:57;29.02;;;17.35;;
65757;SDS011;52495;52.208;5.158;2022-11-20T11:26:25;27.05;;;16.52;;
65757;SDS011;52495;52.208;5.158;2022-11-20T11:28:55;25.52;;;14.60;;
65757;SDS011;52495;52.208;5.158;2022-11-20T11:31:23;26.70;;;16.80;;
65757;SDS011;52495;52.208;5.158;2022-11-20T11:34:02;31.30;;;17.95;;
65757;SDS011;52495;52.208;5.158;2022-11-20T11:36:30;29.77;;;18.30;;
65757;SDS011;52495;52.208;5.158;2022-11-20T11:38:59;28.27;;;15.65;;
65757;SDS011;52495;52.208;5.158;2022-11-20T11:41:28;28.80;;;15.82;;
65757;SDS011;52495;52.208;5.158;2022-11-20T11:44:00;24.50;;;14.15;;
65757;SDS011;52495;52.208;5.158;2022-11-20T11:46:56;31.67;;;17.75;;
65757;SDS011;52495;52.208;5.158;2022-11-20T11:49:26;27.70;;;15.15;;
65757;SDS011;52495;52.208;5.158;2022-11-20T11:51:58;29.80;;;16.08;;
65757;SDS011;52495;52.208;5.158;2022-11-20T11:54:30;35.13;;;20.00;;
65757;SDS011;52495;52.208;5.158;2022-11-20T11:57:03;33.33;;;18.73;;
65757;SDS011;52495;52.208;5.158;2022-11-20T11:59:40;33.63;;;19.27;;
65757;SDS011;52495;52.208;5.158;2022-11-20T12:02:15;29.98;;;16.27;;
65757;SDS011;52495;52.208;5.158;2022-11-20T12:04:58;29.27;;;17.17;;
65757;SDS011;52495;52.208;5.158;2022-11-20T12:07:33;29.80;;;16.48;;
65757;SDS011;52495;52.208;5.158;2022-11-20T12:10:05;35.30;;;19.02;;
65757;SDS011;52495;52.208;5.158;2022-11-20T12:12:38;34.60;;;20.05;;
65757;SDS011;52495;52.208;5.158;2022-11-20T12:15:12;38.20;;;21.23;;
65757;SDS011;52495;52.208;5.158;2022-11-20T12:17:46;37.72;;;20.33;;
65757;SDS011;52495;52.208;5.158;2022-11-20T12:20:15;61.60;;;33.08;;
65757;SDS011;52495;52.208;5.158;2022-11-20T12:22:44;34.72;;;20.58;;
65757;SDS011;52495;52.208;5.158;2022-11-20T12:25:20;40.80;;;20.88;;
65757;SDS011;52495;52.208;5.158;2022-11-20T12:27:54;33.55;;;19.73;;
65757;SDS011;52495;52.208;5.158;2022-11-20T12:30:32;35.85;;;19.13;;
65757;SDS011;52495;52.208;5.158;2022-11-20T12:33:20;27.90;;;15.35;;
65757;SDS011;52495;52.208;5.158;2022-11-20T12:36:14;41.78;;;21.52;;
65757;SDS011;52495;52.208;5.158;2022-11-20T12:38:52;32.38;;;18.30;;
65757;SDS011;52495;52.208;5.158;2022-11-20T12:41:36;37.65;;;21.42;;
65757;SDS011;52495;52.208;5.158;2022-11-20T12:44:43;38.70;;;20.80;;
65757;SDS011;52495;52.208;5.158;2022-11-20T12:47:38;35.58;;;20.15;;
65757;SDS011;52495;52.208;5.158;2022-11-20T12:50:17;36.20;;;19.60;;
65757;SDS011;52495;52.208;5.158;2022-11-20T12:52:57;31.95;;;18.80;;
65757;SDS011;52495;52.208;5.158;2022-11-20T12:55:32;37.42;;;20.98;;
65757;SDS011;52495;52.208;5.158;2022-11-20T12:58:11;34.78;;;19.48;;
65757;SDS011;52495;52.208;5.158;2022-11-20T13:00:47;35.08;;;19.15;;
65757;SDS011;52495;52.208;5.158;2022-11-20T13:03:27;30.83;;;17.10;;
65757;SDS011;52495;52.208;5.158;2022-11-20T13:06:05;37.25;;;20.23;;
65757;SDS011;52495;52.208;5.158;2022-11-20T13:08:41;39.83;;;22.73;;
65757;SDS011;52495;52.208;5.158;2022-11-20T13:11:12;41.47;;;24.58;;
65757;SDS011;52495;52.208;5.158;2022-11-20T13:13:47;42.60;;;23.67;;
65757;SDS011;52495;52.208;5.158;2022-11-20T13:16:30;42.75;;;23.38;;
65757;SDS011;52495;52.208;5.158;2022-11-20T13:19:08;41.33;;;22.15;;
65757;SDS011;52495;52.208;5.158;2022-11-20T13:21:38;32.42;;;17.70;;
65757;SDS011;52495;52.208;5.158;2022-11-20T13:24:19;36.75;;;22.27;;
65757;SDS011;52495;52.208;5.158;2022-11-20T13:26:59;36.92;;;20.67;;
65757;SDS011;52495;52.208;5.158;2022-11-20T13:29:27;39.85;;;22.65;;
65757;SDS011;52495;52.208;5.158;2022-11-20T13:32:02;40.50;;;22.33;;
65757;SDS011;52495;52.208;5.158;2022-11-20T13:34:31;45.58;;;24.63;;
65757;SDS011;52495;52.208;5.158;2022-11-20T13:36:59;40.38;;;23.52;;
65757;SDS011;52495;52.208;5.158;2022-11-20T13:39:30;45.53;;;24.13;;
65757;SDS011;52495;52.208;5.158;2022-11-20T13:41:59;40.70;;;23.02;;
65757;SDS011;52495;52.208;5.158;2022-11-20T13:44:28;34.05;;;19.15;;
65757;SDS011;52495;52.208;5.158;2022-11-20T13:46:59;41.00;;;23.85;;
65757;SDS011;52495;52.208;5.158;2022-11-20T13:49:27;38.67;;;21.85;;
65757;SDS011;52495;52.208;5.158;2022-11-20T13:52:01;41.38;;;22.15;;
65757;SDS011;52495;52.208;5.158;2022-11-20T13:54:54;37.13;;;19.25;;
65757;SDS011;52495;52.208;5.158;2022-11-20T13:57:36;39.88;;;23.45;;
65757;SDS011;52495;52.208;5.158;2022-11-20T14:00:19;42.45;;;24.92;;
65757;SDS011;52495;52.208;5.158;2022-11-20T14:02:52;37.78;;;22.23;;
65757;SDS011;52495;52.208;5.158;2022-11-20T14:05:27;36.50;;;20.55;;
65757;SDS011;52495;52.208;5.158;2022-11-20T14:07:58;35.80;;;19.75;;
65757;SDS011;52495;52.208;5.158;2022-11-20T14:10:27;35.97;;;20.65;;
65757;SDS011;52495;52.208;5.158;2022-11-20T14:12:55;33.85;;;18.35;;
65757;SDS011;52495;52.208;5.158;2022-11-20T14:15:26;34.70;;;21.55;;
65757;SDS011;52495;52.208;5.158;2022-11-20T14:17:54;33.35;;;18.55;;
65757;SDS011;52495;52.208;5.158;2022-11-20T14:20:21;33.30;;;19.60;;
65757;SDS011;52495;52.208;5.158;2022-11-20T14:22:52;39.08;;;22.00;;
65757;SDS011;52495;52.208;5.158;2022-11-20T14:25:20;42.85;;;24.30;;
65757;SDS011;52495;52.208;5.158;2022-11-20T14:27:53;36.58;;;21.02;;
65757;SDS011;52495;52.208;5.158;2022-11-20T14:30:23;37.70;;;20.40;;
65757;SDS011;52495;52.208;5.158;2022-11-20T14:32:53;35.50;;;20.27;;
65757;SDS011;52495;52.208;5.158;2022-11-20T14:35:23;39.70;;;24.13;;
65757;SDS011;52495;52.208;5.158;2022-11-20T14:37:52;37.47;;;22.25;;
65757;SDS011;52495;52.208;5.158;2022-11-20T14:40:27;42.60;;;22.08;;
65757;SDS011;52495;52.208;5.158;2022-11-20T14:42:57;36.65;;;19.27;;
65757;SDS011;52495;52.208;5.158;2022-11-20T14:45:25;38.88;;;21.50;;